Time;durP1;ratioP1;P1;durP2;ratioP2;P2;SDS_P1;SDS_P2;PMS_P1;PMS_P2;Temp;Humidity;BMP_temperature;BMP_pressure;BME280_temperature;BME280_humidity;BME280_pressure;Samples;Min_cycle;Max_cycle;Signal;HPM_P1;HPM_P2
2023/06/26 07:01:20;;;;;;;0.10;0.10;;;31.00;99.90;30.60;101695.00;;;;6188688;22;1379543;-64
2023/06/26 07:03:50;;;;;;;0.20;0.20;;;28.70;99.90;31.50;101693.00;;;;6246483;23;20172;-64
2023/06/26 07:06:21;;;;;;;3.22;0.80;;;28.10;99.90;28.50;101727.00;;;;6247550;23;20137;-64
2023/06/26 07:08:49;;;;;;;0.20;0.20;;;26.60;99.90;28.10;101730.00;;;;6246082;23;20138;-64
2023/06/26 07:11:18;;;;;;;0.30;0.30;;;25.30;99.90;29.20;101727.00;;;;6246578;23;20142;-64
2023/06/26 07:13:44;;;;;;;0.43;0.43;;;25.60;99.90;28.40;101731.00;;;;6246120;23;20142;-64
2023/06/26 07:16:14;;;;;;;0.20;0.20;;;25.80;99.90;28.20;101737.00;;;;6247950;22;20138;-63
2023/06/26 07:18:40;;;;;;;0.10;0.10;;;25.30;99.90;28.40;101731.00;;;;6221630;23;20184;-64
2023/06/26 07:21:09;;;;;;;2.05;0.40;;;25.40;99.90;28.80;101736.00;;;;6245820;23;20633;-63
2023/06/26 07:23:37;;;;;;;0.10;0.10;;;25.90;99.90;30.00;101724.00;;;;6245741;23;20610;-64
2023/06/26 07:26:08;;;;;;;0.30;0.30;;;26.30;99.90;30.20;101724.00;;;;6245984;23;20885;-64
2023/06/26 07:28:39;;;;;;;0.35;0.35;;;27.00;99.90;29.80;101729.00;;;;6247495;23;20228;-64
2023/06/26 07:31:05;;;;;;;7.05;0.80;;;26.50;99.90;28.90;101733.00;;;;6247282;22;20154;-64
2023/06/26 07:33:33;;;;;;;0.10;0.10;;;26.30;99.90;29.90;101712.00;;;;6247704;22;20160;-64
2023/06/26 07:36:02;;;;;;;0.20;0.20;;;26.30;99.90;30.80;101723.00;;;;6247223;22;20224;-63
2023/06/26 07:38:33;;;;;;;0.20;0.20;;;27.00;99.90;31.70;101724.00;;;;6245119;23;20161;-63
2023/06/26 07:41:06;;;;;;;0.10;0.10;;;27.90;99.90;32.30;101722.00;;;;6245722;23;20521;-63
2023/06/26 07:43:37;;;;;;;0.17;0.17;;;28.60;99.90;33.30;101730.00;;;;6247164;23;20173;-64
2023/06/26 07:46:11;;;;;;;0.10;0.10;;;29.60;99.90;34.40;101704.00;;;;6246216;23;20201;-64
2023/06/26 07:48:40;;;;;;;0.10;0.10;;;30.10;99.90;34.90;101698.00;;;;6247330;22;20457;-63
2023/06/26 07:51:11;;;;;;;0.13;0.13;;;30.80;99.90;34.10;101690.00;;;;6220448;23;20245;-64
2023/06/26 07:53:42;;;;;;;0.10;0.10;;;30.70;99.90;34.70;101698.00;;;;6245765;23;20475;-63
2023/06/26 07:56:08;;;;;;;0.10;0.10;;;30.80;99.90;35.40;101733.00;;;;6247606;22;20141;-64
2023/06/26 07:58:39;;;;;;;2.13;0.45;;;31.30;99.90;34.70;101747.00;;;;6220711;23;20204;-64
2023/06/26 08:01:05;;;;;;;2.80;0.50;;;31.30;99.90;31.60;101777.00;;;;6243779;23;20180;-64
2023/06/26 08:03:36;;;;;;;10.02;0.22;;;29.90;99.90;30.00;101786.00;;;;6245840;23;20249;-63
2023/06/26 08:06:05;;;;;;;0.30;0.30;;;27.90;99.90;30.00;101786.00;;;;6246517;22;20141;-64
2023/06/26 08:08:41;;;;;;;1.75;0.57;;;27.70;99.90;27.20;101801.00;;;;6246230;23;20192;-63
2023/06/26 08:11:09;;;;;;;0.10;0.10;;;25.80;99.90;30.30;101777.00;;;;6247471;22;20133;-63
2023/06/26 08:13:38;;;;;;;0.70;0.70;;;26.20;99.90;31.30;101772.00;;;;6247408;23;20582;-63
2023/06/26 08:16:06;;;;;;;0.28;0.28;;;27.20;99.90;31.90;101769.00;;;;6247355;22;20142;-63
2023/06/26 08:18:37;;;;;;;0.10;0.10;;;28.10;99.90;33.50;101762.00;;;;6247816;22;20476;-64
2023/06/26 08:21:03;;;;;;;0.30;0.30;;;29.20;99.90;34.00;101775.00;;;;6246976;22;20149;-64
2023/06/26 08:23:34;;;;;;;0.17;0.17;;;29.90;99.90;35.00;101770.00;;;;6247180;23;20613;-64
2023/06/26 08:26:03;;;;;;;0.10;0.10;;;30.70;99.90;31.60;101780.00;;;;6247276;22;20161;-63
2023/06/26 08:28:32;;;;;;;0.10;0.10;;;28.80;99.90;33.40;101769.00;;;;6247293;22;20473;-63
2023/06/26 08:31:02;;;;;;;0.13;0.13;;;29.30;99.90;33.60;101751.00;;;;6245150;23;20165;-63
2023/06/26 08:33:28;;;;;;;0.10;0.10;;;29.80;99.90;34.00;101786.00;;;;6246858;22;20225;-63
2023/06/26 08:35:57;;;;;;;1.10;0.43;;;30.30;99.90;29.50;101808.00;;;;6246925;22;20547;-64
2023/06/26 08:38:23;;;;;;;0.20;0.20;;;28.80;99.90;31.70;101796.00;;;;6245550;23;20157;-64
2023/06/26 08:40:52;;;;;;;2.00;1.90;;;28.80;99.90;33.60;101786.00;;;;6245393;23;20208;-63
2023/06/26 08:43:21;;;;;;;0.10;0.10;;;29.70;99.90;35.00;101768.00;;;;6247089;22;20173;-64
2023/06/26 08:45:51;;;;;;;0.20;0.20;;;30.60;99.90;35.00;101772.00;;;;6245442;23;20156;-64
2023/06/26 08:48:22;;;;;;;0.10;0.10;;;31.00;99.90;35.00;101768.00;;;;6246895;22;20554;-63
2023/06/26 08:51:01;;;;;;;0.35;0.35;;;31.20;99.90;35.20;101734.00;;;;6245008;23;20154;-64
2023/06/26 08:53:59;;;;;;;0.10;0.10;;;31.50;99.90;35.80;101760.00;;;;6245760;23;20217;-64
2023/06/26 08:56:36;;;;;;;0.10;0.10;;;31.90;99.90;36.10;101768.00;;;;6245271;23;20534;-64
2023/06/26 08:59:05;;;;;;;1.05;0.47;;;32.20;99.80;35.70;101761.00;;;;6246200;22;20150;-64
2023/06/26 09:01:32;;;;;;;2.90;0.65;;;32.20;99.50;34.40;101793.00;;;;6250339;22;20155;-64
2023/06/26 09:03:58;;;;;;;0.10;0.10;;;31.60;99.30;31.80;101803.00;;;;6276785;22;20137;-64
2023/06/26 09:06:24;;;;;;;0.38;0.38;;;29.00;99.90;30.00;101818.00;;;;6249729;22;20153;-63
2023/06/26 09:08:50;;;;;;;0.10;0.10;;;28.00;99.90;32.70;101802.00;;;;6277299;22;20141;-63
2023/06/26 09:11:18;;;;;;;0.10;0.10;;;28.80;99.90;34.70;101809.00;;;;6249803;22;20160;-64
2023/06/26 09:13:47;;;;;;;0.47;0.47;;;30.20;99.90;33.00;101813.00;;;;6277205;22;20181;-63
2023/06/26 09:16:26;;;;;;;0.10;0.10;;;29.40;99.90;33.30;101822.00;;;;6249938;22;20137;-63
2023/06/26 09:19:01;;;;;;;0.63;0.57;;;29.70;99.90;28.50;101833.00;;;;6250470;22;20144;-63
2023/06/26 09:21:30;;;;;;;0.52;0.52;;;26.80;99.90;30.30;101830.00;;;;6276757;22;20223;-63
2023/06/26 09:24:02;;;;;;;5.43;1.08;;;26.60;99.90;31.30;101816.00;;;;6250337;22;20137;-63
2023/06/26 09:26:29;;;;;;;0.10;0.10;;;27.70;99.90;32.90;101821.00;;;;6276566;22;20203;-63
2023/06/26 09:28:56;;;;;;;1.48;0.70;;;29.00;99.90;31.50;101831.00;;;;6224684;22;20589;-64
2023/06/26 09:31:29;;;;;;;4.10;0.25;;;29.20;99.90;30.40;101827.00;;;;6249670;22;20141;-63
2023/06/26 09:34:03;;;;;;;0.10;0.10;;;27.90;99.90;30.10;101843.00;;;;6224357;22;20597;-63
2023/06/26 09:36:34;;;;;;;0.17;0.17;;;26.90;99.90;31.90;101837.00;;;;6249895;22;20190;-63
2023/06/26 09:39:10;;;;;;;0.30;0.30;;;28.00;99.90;30.90;101832.00;;;;6225027;22;20149;-63
2023/06/26 09:41:40;;;;;;;0.35;0.35;;;27.80;99.90;28.90;101852.00;;;;6250936;22;20198;-63
2023/06/26 09:44:13;;;;;;;0.95;0.82;;;27.20;99.90;28.30;101854.00;;;;6250705;22;20144;-63
2023/06/26 09:46:40;;;;;;;0.20;0.20;;;26.00;99.90;28.50;101856.00;;;;6224073;22;20196;-63
2023/06/26 09:49:10;;;;;;;0.10;0.10;;;25.70;99.90;31.30;101846.00;;;;6249897;22;20137;-65
2023/06/26 09:51:41;;;;;;;0.10;0.10;;;27.00;99.90;32.90;101836.00;;;;6250069;22;20276;-64
2023/06/26 09:54:10;;;;;;;0.10;0.10;;;28.60;99.90;28.70;101856.00;;;;6276829;22;20141;-64
2023/06/26 09:56:44;;;;;;;0.10;0.10;;;27.50;99.90;30.60;101856.00;;;;6250093;22;20203;-64
2023/06/26 09:59:10;;;;;;;0.10;0.10;;;27.20;99.90;33.20;101847.00;;;;6276500;22;20140;-64
2023/06/26 10:01:43;;;;;;;1.98;0.70;;;28.70;99.90;33.10;101862.00;;;;6222988;22;20256;-64
2023/06/26 10:04:10;;;;;;;0.50;0.50;;;29.70;98.80;28.20;101880.00;;;;6249626;22;20585;-64
2023/06/26 10:06:47;;;;;;;0.10;0.10;;;27.00;99.90;30.80;101872.00;;;;6276642;22;20153;-64
2023/06/26 10:09:17;;;;;;;0.10;0.10;;;27.20;99.90;32.00;101860.00;;;;6249660;22;20156;-64
2023/06/26 10:12:04;;;;;;;0.10;0.10;;;28.20;99.00;33.50;101855.00;;;;6249579;22;20142;-64
2023/06/26 10:14:38;;;;;;;1.73;0.57;;;29.20;98.70;34.30;101855.00;;;;6276705;22;20216;-64
2023/06/26 10:17:11;;;;;;;0.10;0.10;;;30.00;98.40;34.80;101849.00;;;;6276580;22;20228;-64
2023/06/26 10:19:39;;;;;;;0.30;0.30;;;30.80;98.90;33.90;101847.00;;;;6249549;22;20149;-64
2023/06/26 10:33:38;;;;;;;0.30;0.30;;;27.20;99.20;29.20;101870.00;;;;5070211;28;20866;-65
2023/06/26 10:36:26;;;;;;;0.10;0.10;;;26.80;99.90;31.60;101865.00;;;;5030914;28;20582;-65
2023/06/26 10:39:00;;;;;;;0.20;0.20;;;27.80;99.50;32.90;101863.00;;;;5050113;28;20732;-63
2023/06/26 10:41:36;;;;;;;0.57;0.57;;;28.90;99.50;32.70;101872.00;;;;5050724;28;20194;-63
2023/06/26 10:44:02;;;;;;;0.30;0.30;;;29.40;98.20;31.00;101881.00;;;;5048704;28;20173;-65
2023/06/26 10:46:47;;;;;;;0.10;0.10;;;28.40;98.60;33.80;101869.00;;;;5050437;28;20213;-63
2023/06/26 10:49:13;;;;;;;0.10;0.10;;;29.50;98.40;33.90;101858.00;;;;5048989;28;20659;-63
2023/06/26 10:52:03;;;;;;;0.10;0.10;;;29.90;98.90;34.10;101864.00;;;;5048875;28;20194;-63
2023/06/26 10:54:31;;;;;;;0.20;0.20;;;30.10;98.40;33.00;101857.00;;;;5048558;28;20214;-64
2023/06/26 10:57:02;;;;;;;0.28;0.28;;;29.60;97.10;33.60;101857.00;;;;5049014;28;20269;-64
2023/06/26 10:59:31;;;;;;;0.82;0.43;;;29.70;97.00;32.60;101876.00;;;;5048601;28;20531;-64
2023/06/26 11:02:06;;;;;;;2.15;1.20;;;29.60;97.50;29.80;101901.00;;;;5049719;28;20560;-63
2023/06/26 11:04:48;;;;;;;10.32;0.90;;;27.90;98.60;29.50;101906.00;;;;5049867;28;20182;-63
2023/06/26 11:07:25;;;;;;;0.30;0.30;;;26.90;99.60;30.40;101898.00;;;;5074290;28;20420;-63
2023/06/26 11:10:07;;;;;;;0.10;0.10;;;27.10;99.90;32.00;101892.00;;;;5048968;28;20174;-64
2023/06/26 11:12:44;;;;;;;0.10;0.10;;;27.80;99.60;32.90;101895.00;;;;5041469;28;20287;-64
2023/06/26 11:15:16;;;;;;;0.15;0.13;;;28.50;98.90;32.10;101883.00;;;;5031657;28;20182;-64
2023/06/26 11:17:46;;;;;;;0.10;0.10;;;28.50;98.90;32.10;101914.00;;;;5042650;28;20660;-64
2023/06/26 11:20:20;;;;;;;0.10;0.10;;;28.10;98.80;32.20;101901.00;;;;5048138;28;20597;-64
2023/06/26 11:22:53;;;;;;;0.10;0.10;;;28.10;99.40;32.60;101909.00;;;;5048532;28;20644;-63
2023/06/26 11:25:20;;;;;;;0.13;0.13;;;28.90;98.80;32.90;101917.00;;;;5048197;28;20175;-64
2023/06/26 11:27:51;;;;;;;0.10;0.10;;;29.20;98.30;34.10;101909.00;;;;5049401;28;20182;-64
2023/06/26 11:30:52;;;;;;;0.98;0.25;;;30.10;96.70;29.40;101939.00;;;;5048216;28;20202;-63
2023/06/26 11:33:46;;;;;;;0.20;0.20;;;28.80;96.10;29.30;101928.00;;;;5049556;28;20714;-63
2023/06/26 11:36:14;;;;;;;1.75;0.50;;;26.30;98.90;27.30;101946.00;;;;5047721;28;20187;-63
2023/06/26 11:38:43;;;;;;;0.10;0.10;;;25.50;99.90;31.10;101932.00;;;;5049771;28;20182;-63
2023/06/26 11:41:17;;;;;;;0.30;0.30;;;26.90;99.90;33.10;101920.00;;;;5048981;28;20617;-64
2023/06/26 11:43:48;;;;;;;0.10;0.10;;;28.90;99.80;34.20;101913.00;;;;5041356;28;20269;-64
2023/06/26 11:46:22;;;;;;;0.10;0.10;;;30.20;97.80;34.20;101908.00;;;;5034330;28;20187;-64
2023/06/26 11:48:50;;;;;;;2.45;0.60;;;30.40;96.90;31.20;101933.00;;;;5036031;28;20634;-64
2023/06/26 11:51:16;;;;;;;0.15;0.15;;;28.50;97.40;30.70;101947.00;;;;5035379;28;20278;-63
2023/06/26 11:53:46;;;;;;;0.10;0.10;;;27.60;98.20;30.80;101943.00;;;;5035697;28;20198;-63
2023/06/26 11:56:26;;;;;;;0.10;0.10;;;27.10;97.90;30.20;101948.00;;;;5035555;28;20179;-63
2023/06/26 11:59:06;;;;;;;0.65;0.65;;;26.90;97.70;27.40;101941.00;;;;5031586;28;20183;-63
2023/06/26 12:01:41;;;;;;;0.10;0.10;;;25.50;98.80;28.50;101953.00;;;;5035622;28;20193;-65
2023/06/26 12:04:19;;;;;;;11.57;0.52;;;25.20;99.80;29.50;101957.00;;;;5035368;28;20269;-65
2023/06/26 12:06:57;;;;;;;0.60;0.60;;;26.10;99.10;31.30;101939.00;;;;5033939;28;20183;-65
2023/06/26 12:09:29;;;;;;;0.80;0.65;;;27.10;98.90;28.30;101964.00;;;;5057926;28;20194;-63
2023/06/26 12:12:12;;;;;;;0.10;0.10;;;26.50;97.80;31.50;101933.00;;;;5034008;28;20637;-66
2023/06/26 12:14:41;;;;;;;0.15;0.15;;;27.10;98.60;31.50;101944.00;;;;5034010;28;20191;-66
2023/06/26 12:17:13;;;;;;;0.10;0.10;;;27.60;99.00;32.20;101934.00;;;;5033813;28;20636;-63
2023/06/26 12:19:51;;;;;;;0.10;0.10;;;27.90;97.70;31.80;101944.00;;;;5033807;28;20183;-63
2023/06/26 12:22:21;;;;;;;0.10;0.10;;;28.20;97.60;31.60;101933.00;;;;5033968;28;20562;-63
2023/06/26 12:24:50;;;;;;;0.10;0.10;;;28.00;97.30;32.10;101926.00;;;;5033838;28;20659;-63
2023/06/26 12:27:23;;;;;;;0.10;0.10;;;28.00;97.20;31.60;101947.00;;;;5034821;28;20197;-63
2023/06/26 12:29:56;;;;;;;0.10;0.10;;;27.90;97.00;31.40;101945.00;;;;5033805;28;20205;-65
2023/06/26 12:32:25;;;;;;;0.30;0.30;;;27.60;97.50;31.30;101941.00;;;;5034445;28;20219;-64
2023/06/26 12:34:53;;;;;;;0.30;0.30;;;27.40;97.50;31.60;101947.00;;;;5034813;28;20183;-63
2023/06/26 12:37:22;;;;;;;0.10;0.10;;;27.60;97.20;29.20;101967.00;;;;5033483;28;20652;-63
2023/06/26 12:39:52;;;;;;;0.30;0.30;;;27.10;96.60;29.70;101963.00;;;;5035484;28;20218;-63
2023/06/26 12:42:23;;;;;;;0.10;0.10;;;26.30;98.20;31.20;101937.00;;;;5034735;28;20218;-65
2023/06/26 12:44:51;;;;;;;0.30;0.30;;;27.10;97.10;31.80;101950.00;;;;5034955;28;20186;-65
2023/06/26 12:47:29;;;;;;;1.13;0.65;;;27.60;97.10;29.20;101962.00;;;;5033116;28;20552;-65
2023/06/26 12:50:04;;;;;;;0.10;0.10;;;26.60;96.60;29.70;101953.00;;;;5033448;28;20182;-65
2023/06/26 12:52:35;;;;;;;0.35;0.35;;;26.30;97.60;30.30;101949.00;;;;5033354;28;20564;-65
2023/06/26 12:55:27;;;;;;;0.10;0.10;;;26.60;97.60;30.40;101941.00;;;;5033621;28;20183;-65
2023/06/26 12:58:01;;;;;;;0.10;0.10;;;26.90;97.20;31.40;101938.00;;;;5022748;28;20191;-65
2023/06/26 13:00:39;;;;;;;0.10;0.10;;;27.20;97.60;32.00;101915.00;;;;5023337;28;20732;-65
2023/06/26 13:03:21;;;;;;;0.10;0.10;;;27.60;97.20;32.00;101936.00;;;;5032929;28;20240;-63
2023/06/26 13:06:00;;;;;;;0.10;0.10;;;27.80;96.90;30.20;101933.00;;;;5015385;28;20202;-63
2023/06/26 13:08:47;;;;;;;0.88;0.70;;;26.80;97.60;27.30;101961.00;;;;5013611;28;20179;-63
2023/06/26 13:11:33;;;;;;;3.03;2.83;;;25.70;96.50;28.40;101960.00;;;;5030564;28;20210;-63
2023/06/26 13:14:03;;;;;;;0.10;0.10;;;25.20;97.80;30.70;101950.00;;;;5033959;28;20598;-63
2023/06/26 13:16:52;;;;;;;0.10;0.10;;;26.20;97.70;31.40;101947.00;;;;5033332;28;20700;-65
2023/06/26 13:19:21;;;;;;;0.10;0.10;;;26.90;98.20;31.30;101920.00;;;;5032951;28;20216;-65
2023/06/26 13:21:54;;;;;;;0.10;0.10;;;27.30;98.30;31.50;101939.00;;;;5032830;28;20194;-64
2023/06/26 13:24:22;;;;;;;0.10;0.10;;;27.50;98.50;31.50;101931.00;;;;5032768;28;20182;-65
2023/06/26 13:26:56;;;;;;;0.10;0.10;;;27.50;98.40;31.70;101951.00;;;;5049113;28;20190;-63
2023/06/26 13:29:33;;;;;;;0.10;0.10;;;27.70;98.10;31.20;101944.00;;;;5033978;28;20191;-63
2023/06/26 13:32:24;;;;;;;0.10;0.10;;;27.40;98.00;31.30;101939.00;;;;5033720;28;20215;-63
2023/06/26 13:35:10;;;;;;;0.13;0.13;;;27.30;98.20;31.40;101938.00;;;;5032427;28;20191;-63
2023/06/26 13:37:42;;;;;;;0.10;0.10;;;27.40;97.40;31.50;101942.00;;;;5033583;28;20248;-63
2023/06/26 13:40:14;;;;;;;0.10;0.10;;;27.40;98.20;31.10;101944.00;;;;5033053;28;20660;-63
2023/06/26 13:43:13;;;;;;;0.43;0.43;;;27.50;97.20;30.80;101951.00;;;;5032052;28;20274;-64
2023/06/26 13:45:46;;;;;;;0.10;0.10;;;27.10;97.90;31.40;101963.00;;;;5032595;28;20193;-64
2023/06/26 13:48:24;;;;;;;0.20;0.20;;;27.30;97.50;31.50;101946.00;;;;5032216;28;20191;-64
2023/06/26 13:50:56;;;;;;;0.20;0.20;;;27.40;97.00;30.60;101939.00;;;;5032348;28;20229;-64
2023/06/26 13:53:24;;;;;;;0.10;0.10;;;27.10;96.20;30.60;101967.00;;;;5031890;28;20223;-64
2023/06/26 13:55:51;;;;;;;0.10;0.10;;;26.90;98.10;30.50;101962.00;;;;5032954;28;20191;-64
2023/06/26 13:58:26;;;;;;;4.85;0.38;;;26.80;96.40;30.80;101959.00;;;;5033408;28;20194;-65
2023/06/26 14:01:16;;;;;;;0.30;0.30;;;26.90;97.00;30.00;101965.00;;;;5033062;28;20178;-65
2023/06/26 14:03:41;;;;;;;0.40;0.40;;;26.80;96.30;30.50;101963.00;;;;5015432;28;20190;-62
2023/06/26 14:06:07;;;;;;;0.10;0.10;;;26.60;97.20;31.10;101955.00;;;;5032571;28;20179;-63
2023/06/26 14:08:38;;;;;;;0.10;0.10;;;26.90;97.20;31.40;101958.00;;;;5031124;28;20218;-63
2023/06/26 14:11:15;;;;;;;0.30;0.30;;;27.20;98.60;28.90;101972.00;;;;5033761;28;20193;-62
2023/06/26 14:13:45;;;;;;;0.10;0.10;;;26.40;99.90;28.50;101981.00;;;;5031789;28;20294;-62
2023/06/26 14:16:14;;;;;;;6.45;0.98;;;25.40;99.90;27.90;101993.00;;;;5033570;28;20195;-62
2023/06/26 14:18:43;;;;;;;0.75;0.70;;;25.10;99.90;28.60;101995.00;;;;5031705;28;20185;-62
2023/06/26 14:21:18;;;;;;;0.30;0.30;;;25.20;99.90;28.50;101998.00;;;;5031950;28;20588;-63
2023/06/26 14:23:49;;;;;;;1.15;1.08;;;25.20;99.90;28.20;101998.00;;;;5022429;28;20261;-62
2023/06/26 14:26:30;;;;;;;0.43;0.43;;;25.10;99.90;28.20;102007.00;;;;5033008;28;20226;-62
2023/06/26 14:28:56;;;;;;;0.55;0.55;;;25.00;99.90;27.60;102010.00;;;;5025779;28;20656;-62
2023/06/26 14:31:25;;;;;;;0.10;0.10;;;24.70;99.90;28.00;102006.00;;;;5032918;28;20206;-62
2023/06/26 14:33:51;;;;;;;0.10;0.10;;;24.60;99.90;29.30;101998.00;;;;5032846;28;20186;-62
2023/06/26 14:36:16;;;;;;;0.40;0.30;;;25.00;99.90;29.80;101986.00;;;;5031684;28;20286;-63
2023/06/26 14:38:45;;;;;;;0.30;0.30;;;25.60;99.90;29.60;101985.00;;;;5033172;28;20615;-62
2023/06/26 14:41:16;;;;;;;0.50;0.47;;;25.80;99.90;29.80;101982.00;;;;5032925;28;20190;-62
2023/06/26 14:44:08;;;;;;;0.10;0.10;;;26.00;99.90;29.20;101986.00;;;;5028767;28;20205;-62
2023/06/26 14:47:11;;;;;;;0.10;0.10;;;25.70;99.90;29.10;101980.00;;;;5029915;28;20281;-62
2023/06/26 14:50:22;;;;;;;0.20;0.20;;;25.50;99.90;30.20;101973.00;;;;5027646;28;20261;-62
2023/06/26 14:53:47;;;;;;;0.20;0.20;;;25.90;99.90;29.10;101974.00;;;;5032586;28;20241;-62
2023/06/26 14:56:51;;;;;;;0.40;0.40;;;25.90;99.90;30.10;101976.00;;;;5062964;28;20195;-62
2023/06/26 14:59:49;;;;;;;0.13;0.13;;;26.10;99.90;30.10;101972.00;;;;5024732;28;20719;-62
2023/06/26 15:03:00;;;;;;;0.65;0.22;;;26.10;99.90;30.10;101973.00;;;;5031998;28;20213;-62
2023/06/26 15:06:05;;;;;;;0.10;0.10;;;26.20;99.90;29.60;101990.00;;;;5022484;28;20197;-62
2023/06/26 15:08:55;;;;;;;0.13;0.13;;;25.90;99.90;29.00;101993.00;;;;5029551;28;20621;-62
2023/06/26 15:11:53;;;;;;;0.20;0.20;;;25.60;99.90;28.60;101995.00;;;;5014254;28;20226;-62
2023/06/26 15:14:56;;;;;;;0.30;0.30;;;25.20;99.90;28.90;101992.00;;;;5032382;28;20198;-62
2023/06/26 15:18:00;;;;;;;0.10;0.10;;;25.20;99.90;27.60;101995.00;;;;5032545;28;20182;-62
2023/06/26 15:21:02;;;;;;;0.10;0.10;;;25.20;99.90;28.10;102002.00;;;;5025649;28;20198;-61
2023/06/26 15:24:06;;;;;;;0.10;0.10;;;24.60;99.90;28.40;102001.00;;;;5036247;28;20178;-61
2023/06/26 15:26:52;;;;;;;0.22;0.22;;;24.90;99.90;27.70;102000.00;;;;5066215;28;20205;-61
2023/06/26 15:29:58;;;;;;;0.10;0.10;;;24.60;99.90;28.90;101987.00;;;;5023601;28;20723;-62
2023/06/26 15:33:11;;;;;;;0.10;0.10;;;24.90;99.90;28.30;102006.00;;;;5032180;28;20222;-62
2023/06/26 15:36:06;;;;;;;0.30;0.30;;;24.90;99.90;28.30;102010.00;;;;5027031;28;20557;-62
2023/06/26 15:39:09;;;;;;;0.13;0.13;;;24.80;99.90;28.00;102003.00;;;;5024084;28;20235;-61
2023/06/26 15:41:55;;;;;;;3.85;0.30;;;24.70;99.90;28.00;102010.00;;;;5034133;28;20195;-61
2023/06/26 15:45:08;;;;;;;0.43;0.43;;;24.60;99.90;27.60;102006.00;;;;5035603;28;20267;-60
2023/06/26 15:48:18;;;;;;;0.10;0.10;;;24.40;99.90;28.20;102006.00;;;;5035743;28;20201;-61
2023/06/26 15:51:10;;;;;;;0.10;0.10;;;24.40;99.90;27.90;102013.00;;;;5034246;28;20198;-61
2023/06/26 15:53:57;;;;;;;0.13;0.13;;;24.40;99.90;28.30;102011.00;;;;5034047;28;20645;-61
2023/06/26 15:57:05;;;;;;;8.07;0.63;;;24.60;99.90;26.80;102024.00;;;;5026405;28;20272;-61
2023/06/26 16:00:12;;;;;;;0.30;0.30;;;24.10;99.90;26.90;102029.00;;;;5035607;28;20240;-60
2023/06/26 16:03:15;;;;;;;0.95;0.95;;;23.60;99.90;27.30;102030.00;;;;5034522;28;20551;-61
2023/06/26 16:06:21;;;;;;;0.28;0.28;;;23.60;99.90;28.00;102020.00;;;;5056883;28;20208;-62
2023/06/26 16:09:23;;;;;;;0.20;0.20;;;24.00;99.90;27.80;102012.00;;;;5034285;28;20241;-62
2023/06/26 16:12:16;;;;;;;0.82;0.82;;;24.10;99.90;27.40;102035.00;;;;5034475;28;21022;-61
2023/06/26 16:15:13;;;;;;;0.15;0.15;;;23.90;99.90;27.50;102035.00;;;;5060780;28;20555;-62
2023/06/26 16:18:17;;;;;;;0.10;0.10;;;24.00;99.90;28.10;102025.00;;;;5034304;28;20179;-62
2023/06/26 16:21:20;;;;;;;0.10;0.10;;;24.10;99.90;26.90;102033.00;;;;5029205;28;20664;-62
2023/06/26 16:24:24;;;;;;;0.20;0.20;;;24.20;99.90;26.80;102037.00;;;;5029585;28;20261;-62
2023/06/26 16:27:18;;;;;;;0.13;0.13;;;23.60;99.90;27.70;102009.00;;;;5029313;28;20185;-62
2023/06/26 16:30:26;;;;;;;0.10;0.10;;;23.80;99.90;28.40;101998.00;;;;5033768;28;20186;-62
2023/06/26 16:33:35;;;;;;;0.10;0.10;;;24.10;99.90;27.90;102007.00;;;;5022058;28;20559;-62
2023/06/26 16:36:43;;;;;;;0.10;0.10;;;24.20;99.90;28.80;102000.00;;;;5031976;28;20656;-62
2023/06/26 16:39:36;;;;;;;0.10;0.10;;;24.40;99.90;28.40;101990.00;;;;5034809;28;20198;-62
2023/06/26 16:42:50;;;;;;;0.20;0.17;;;24.70;99.90;28.30;101999.00;;;;5017285;28;20641;-62
2023/06/26 16:46:02;;;;;;;3.63;0.40;;;24.40;99.90;27.30;102007.00;;;;5028321;28;20190;-62
2023/06/26 16:48:53;;;;;;;0.10;0.10;;;24.20;99.90;27.40;102004.00;;;;5028890;28;20179;-62
2023/06/26 16:51:49;;;;;;;0.43;0.43;;;23.80;99.90;27.10;101996.00;;;;5027247;28;20195;-62
2023/06/26 16:54:45;;;;;;;0.10;0.10;;;23.60;99.90;26.50;102011.00;;;;5030342;28;20195;-62
2023/06/26 16:58:06;;;;;;;0.10;0.10;;;23.50;99.90;27.60;101995.00;;;;5022726;28;20179;-62
2023/06/26 17:01:09;;;;;;;0.10;0.10;;;23.60;99.90;27.30;102000.00;;;;5030151;28;20633;-62
2023/06/26 17:04:18;;;;;;;0.10;0.10;;;23.50;99.90;27.00;102007.00;;;;5028536;28;20202;-61
2023/06/26 17:07:16;;;;;;;0.22;0.22;;;23.60;99.90;26.20;102020.00;;;;5033933;28;20202;-61
2023/06/26 17:10:09;;;;;;;0.10;0.10;;;23.20;99.90;26.40;102012.00;;;;5033145;28;20190;-61
2023/06/26 17:13:35;;;;;;;0.10;0.10;;;23.00;99.90;27.30;102001.00;;;;5014621;28;20203;-62
2023/06/26 17:16:33;;;;;;;0.10;0.10;;;23.50;99.90;27.40;101996.00;;;;5036860;28;20633;-61
2023/06/26 17:19:22;;;;;;;0.10;0.10;;;23.60;99.90;28.30;101993.00;;;;5034244;28;20182;-62
2023/06/26 17:22:15;;;;;;;0.10;0.10;;;23.90;99.90;28.30;101987.00;;;;5027471;28;20234;-62
2023/06/26 17:25:21;;;;;;;0.10;0.10;;;24.10;99.90;28.40;101999.00;;;;5027922;28;20245;-61
2023/06/26 17:28:07;;;;;;;2.83;0.50;;;24.30;99.90;28.70;101993.00;;;;5027431;28;20297;-62
2023/06/26 17:31:16;;;;;;;0.10;0.10;;;24.50;99.90;28.60;101988.00;;;;5034340;28;20680;-62
2023/06/26 17:34:25;;;;;;;0.10;0.10;;;24.40;99.90;28.70;101984.00;;;;5030198;28;20192;-61
2023/06/26 17:37:29;;;;;;;0.52;0.52;;;24.30;99.90;28.50;101990.00;;;;5033212;28;20583;-62
2023/06/26 17:40:38;;;;;;;0.15;0.15;;;24.30;99.90;26.40;102003.00;;;;5032647;28;20584;-61
2023/06/26 17:44:01;;;;;;;0.10;0.10;;;23.70;99.90;26.80;102005.00;;;;5028320;28;20633;-62
2023/06/26 17:47:15;;;;;;;0.10;0.10;;;23.50;99.90;27.20;101997.00;;;;5028423;28;20750;-61
2023/06/26 17:54:31;;;;;;;0.10;0.10;;;23.50;99.90;27.80;102006.00;;;;5025766;28;20206;-62
2023/06/26 17:57:53;;;;;;;0.10;0.10;;;23.80;99.90;27.60;102008.00;;;;5031819;28;20254;-61
2023/06/26 18:01:16;;;;;;;0.10;0.10;;;23.70;99.90;27.70;102011.00;;;;5035654;28;20626;-62
2023/06/26 18:04:37;;;;;;;0.10;0.10;;;23.60;99.90;27.90;102004.00;;;;5050055;28;20191;-62
2023/06/26 18:07:46;;;;;;;0.10;0.10;;;23.70;99.90;28.30;102004.00;;;;5027809;28;20193;-61
2023/06/26 18:10:50;;;;;;;0.10;0.10;;;23.80;99.90;28.40;102004.00;;;;5027144;28;20209;-62
2023/06/26 18:13:58;;;;;;;0.10;0.10;;;23.90;99.90;28.20;102015.00;;;;5019794;28;20301;-62
2023/06/26 18:17:22;;;;;;;0.40;0.40;;;24.00;99.90;26.50;102030.00;;;;5041176;28;20187;-61
2023/06/26 18:20:35;;;;;;;0.10;0.10;;;23.40;99.90;27.70;102014.00;;;;5027563;28;20190;-61
2023/06/26 18:23:40;;;;;;;0.10;0.10;;;23.50;99.90;27.90;102011.00;;;;5025968;28;20183;-62
2023/06/26 18:26:42;;;;;;;0.10;0.10;;;23.70;99.90;27.70;102016.00;;;;5031726;28;20272;-61
2023/06/26 18:29:41;;;;;;;0.10;0.10;;;23.70;99.90;28.10;102018.00;;;;5024222;28;20191;-62
2023/06/26 18:32:38;;;;;;;0.10;0.10;;;23.70;99.90;27.60;102034.00;;;;5030766;28;20325;-62
2023/06/26 18:35:28;;;;;;;2.60;0.50;;;23.60;99.90;26.90;102040.00;;;;5025341;28;20269;-62
2023/06/26 18:38:32;;;;;;;0.10;0.10;;;23.40;99.90;27.10;102031.00;;;;5033192;28;20183;-61
2023/06/26 18:41:48;;;;;;;0.10;0.10;;;23.30;99.90;27.20;102039.00;;;;5028455;28;20641;-61
2023/06/26 18:45:12;;;;;;;0.10;0.10;;;23.20;99.90;27.40;102030.00;;;;5029872;28;20198;-61
2023/06/26 18:48:13;;;;;;;0.10;0.10;;;23.20;99.90;27.30;102018.00;;;;5033123;28;20266;-61
2023/06/26 18:51:14;;;;;;;0.17;0.17;;;23.30;99.90;27.00;102028.00;;;;5021678;28;20190;-61
2023/06/26 18:54:39;;;;;;;0.10;0.10;;;23.00;99.90;27.30;102022.00;;;;5032784;28;20546;-61
2023/06/26 18:58:03;;;;;;;0.10;0.10;;;23.10;99.90;26.00;102051.00;;;;5036672;28;20596;-61
2023/06/26 19:01:11;;;;;;;0.20;0.20;;;22.60;99.90;27.20;102033.00;;;;5036663;28;20179;-61
2023/06/26 19:04:29;;;;;;;0.10;0.10;;;22.90;99.90;27.40;102027.00;;;;5035535;28;20201;-61
2023/06/26 19:07:53;;;;;;;0.20;0.20;;;23.00;99.90;27.60;102031.00;;;;5035700;28;20389;-61
2023/06/26 19:11:13;;;;;;;0.20;0.20;;;23.20;99.90;27.10;102037.00;;;;5032507;28;20194;-61
2023/06/26 19:14:17;;;;;;;0.10;0.10;;;23.10;99.90;27.00;102044.00;;;;5033176;28;20191;-61